Terminal Aerodrome Forecast
Issued by NWS Charleston, WV

Home | Current Version | Previous Version | Text Only | Print | Product List | Glossary On
Versions: 1 2 3 4 5 6 7 8 9 10 11 12 13 14 15 16 17 18 19 20 21 22
000
FTUS41 KRLX 280907 AAA
TAFEKN
TAF AMD
KEKN 280907Z 2809/2906 00000KT 6SM BR FEW008 OVC015
     FM281100 00000KT 2SM BR OVC025
     FM281700 VRB03KT 3SM +SHRA BR VCTS OVC025CB
     FM282100 VRB03KT 1 1/2SM +SHRA BR VCTS OVC025CB=

USA.gov is the U.S. government's official web portal to all federal, state and local government web resources and services.